createdAt,value
2018-11-02T00:00:06.607Z,9.35
2018-11-02T00:02:38.307Z,9.31
2018-11-02T00:05:10.936Z,8.92
2018-11-02T00:07:42.398Z,9.32
2018-11-02T00:10:13.832Z,9.31
2018-11-02T00:12:45.460Z,9.31
2018-11-02T00:15:17.298Z,9.32
2018-11-02T00:17:49.485Z,9.32
2018-11-02T00:20:21.924Z,9.29
2018-11-02T00:22:54.947Z,9.32
2018-11-02T00:25:27.086Z,9.36
2018-11-02T00:28:10.833Z,9.38
2018-11-02T00:30:45.930Z,9.08
2018-11-02T00:33:19.017Z,9.45
2018-11-02T00:35:51.999Z,9.55
2018-11-02T00:38:23.682Z,9.63
2018-11-02T00:40:55.915Z,9.67
2018-11-02T00:43:28.891Z,9.74
2018-11-02T00:46:01.649Z,9.79
2018-11-02T00:48:34.284Z,9.91
2018-11-02T00:51:06.702Z,9.98
2018-11-02T00:53:38.028Z,10.08
2018-11-02T00:56:10.128Z,10.17
2018-11-02T00:58:42.377Z,10.22
2018-11-02T01:01:15.118Z,10.28
2018-11-02T01:03:47.441Z,10.30
2018-11-02T01:06:19.786Z,10.37
2018-11-02T01:08:52.194Z,10.44
2018-11-02T01:11:23.806Z,10.44
2018-11-02T01:13:56.524Z,10.46
2018-11-02T01:16:28.473Z,10.05
2018-11-02T01:19:00.512Z,10.52
2018-11-02T01:21:32.682Z,10.54
2018-11-02T01:24:04.437Z,10.60
2018-11-02T01:26:37.021Z,10.62
2018-11-02T01:29:08.577Z,10.62
2018-11-02T01:31:41.142Z,10.64
2018-11-02T01:34:13.749Z,10.53
2018-11-02T01:36:45.520Z,10.65
2018-11-02T01:39:17.882Z,10.57
2018-11-02T01:41:49.795Z,10.39
2018-11-02T01:44:22.470Z,10.24
2018-11-02T01:46:55.620Z,10.09
2018-11-02T01:49:29.754Z,9.98
2018-11-02T01:52:02.242Z,9.86
2018-11-02T01:54:34.636Z,9.71
2018-11-02T01:57:06.452Z,9.59
2018-11-02T01:59:40.863Z,9.49
2018-11-02T02:02:13.887Z,9.39
2018-11-02T02:04:45.530Z,9.28
2018-11-02T02:07:16.801Z,9.13
2018-11-02T02:09:49.841Z,9.03
2018-11-02T02:12:21.420Z,8.94
2018-11-02T02:14:53.730Z,8.89
2018-11-02T02:17:24.951Z,8.83
2018-11-02T02:19:56.448Z,8.77
2018-11-02T02:22:28.251Z,8.74
2018-11-02T02:25:00.258Z,8.67
2018-11-02T02:27:39.922Z,8.60
2018-11-02T02:30:14.984Z,8.52
2018-11-02T02:32:47.050Z,8.45
2018-11-02T02:35:18.810Z,8.38
2018-11-02T02:37:50.696Z,8.32
2018-11-02T02:40:22.889Z,7.70
2018-11-02T02:42:54.734Z,8.22
2018-11-02T02:45:26.118Z,8.18
2018-11-02T02:47:57.572Z,8.14
2018-11-02T02:50:30.028Z,8.08
2018-11-02T02:53:01.401Z,8.03
2018-11-02T02:55:33.059Z,8.00
2018-11-02T02:58:04.598Z,7.97
2018-11-02T03:00:35.926Z,7.90
2018-11-02T03:03:07.442Z,7.87
2018-11-02T03:05:39.739Z,7.89
2018-11-02T03:08:11.214Z,7.80
2018-11-02T03:10:42.312Z,7.85
2018-11-02T03:13:14.023Z,7.78
2018-11-02T03:15:45.546Z,7.83
2018-11-02T03:18:17.585Z,7.82
2018-11-02T03:20:49.488Z,7.83
2018-11-02T03:23:20.482Z,7.83
2018-11-02T03:25:51.561Z,7.89
2018-11-02T03:28:23.800Z,7.95
2018-11-02T03:30:55.495Z,7.99
2018-11-02T03:33:27.164Z,7.99
2018-11-02T03:35:58.727Z,8.00
2018-11-02T03:38:30.667Z,8.01
2018-11-02T03:41:02.447Z,8.03
2018-11-02T03:43:34.846Z,8.24
2018-11-02T03:46:07.793Z,8.49
2018-11-02T03:48:38.934Z,8.65
2018-11-02T03:51:09.987Z,8.73
2018-11-02T03:53:41.672Z,8.71
2018-11-02T03:56:13.897Z,8.64
2018-11-02T03:58:45.763Z,8.69
2018-11-02T04:01:17.667Z,8.81
2018-11-02T04:03:49.814Z,8.83
2018-11-02T04:06:21.899Z,8.72
2018-11-02T04:08:54.070Z,8.80
2018-11-02T04:11:26.088Z,8.72
2018-11-02T04:13:57.433Z,8.64
2018-11-02T04:16:29.086Z,8.58
2018-11-02T04:19:00.072Z,8.52
2018-11-02T04:21:36.582Z,8.47
2018-11-02T04:24:08.806Z,8.45
2018-11-02T04:26:40.390Z,8.38
2018-11-02T04:29:13.170Z,7.74
2018-11-02T04:31:45.128Z,8.34
2018-11-02T04:34:17.540Z,8.32
2018-11-02T04:36:48.907Z,8.30
2018-11-02T04:39:20.845Z,8.27
2018-11-02T04:41:52.406Z,8.30
2018-11-02T04:44:23.852Z,8.22
2018-11-02T04:46:55.505Z,8.31
2018-11-02T04:49:26.526Z,8.36
2018-11-02T04:51:57.985Z,8.35
2018-11-02T04:54:29.746Z,8.33
2018-11-02T04:57:00.894Z,8.32
2018-11-02T04:59:32.010Z,8.37
2018-11-02T05:02:03.122Z,8.41
2018-11-02T05:04:34.957Z,8.46
2018-11-02T05:07:06.601Z,8.56
2018-11-02T05:09:38.670Z,8.67
2018-11-02T05:12:11.092Z,8.96
2018-11-02T05:14:47.021Z,9.26
2018-11-02T05:17:18.607Z,9.49
2018-11-02T05:19:50.002Z,9.68
2018-11-02T05:22:21.947Z,9.27
2018-11-02T05:24:54.050Z,10.03
2018-11-02T05:27:25.853Z,10.11
2018-11-02T05:29:57.542Z,10.13
2018-11-02T05:32:28.744Z,10.13
2018-11-02T05:35:00.627Z,10.11
2018-11-02T05:37:34.760Z,10.09
2018-11-02T05:40:06.020Z,10.05
2018-11-02T05:42:37.796Z,10.03
2018-11-02T05:45:09.346Z,9.98
2018-11-02T05:47:40.582Z,9.94
2018-11-02T05:50:12.707Z,9.88
2018-11-02T05:52:44.484Z,9.82
2018-11-02T05:55:15.505Z,9.75
2018-11-02T05:57:47.362Z,9.71
2018-11-02T06:00:18.887Z,9.69
2018-11-02T06:02:49.930Z,9.69
2018-11-02T06:05:21.538Z,9.70
2018-11-02T06:07:53.100Z,9.67
2018-11-02T06:10:24.385Z,9.68
2018-11-02T06:12:55.500Z,9.71
2018-11-02T06:15:26.830Z,9.73
2018-11-02T06:17:58.803Z,9.76
2018-11-02T06:20:30.416Z,9.80
2018-11-02T06:23:02.013Z,9.85
2018-11-02T06:25:33.798Z,9.87
2018-11-02T06:28:05.519Z,9.32
2018-11-02T06:30:37.334Z,9.91
2018-11-02T06:33:08.520Z,9.34
2018-11-02T06:35:39.518Z,9.95
2018-11-02T06:38:10.971Z,9.96
2018-11-02T06:40:42.474Z,9.95
2018-11-02T06:43:14.589Z,9.37
2018-11-02T06:45:45.639Z,9.92
2018-11-02T06:48:16.958Z,9.95
2018-11-02T06:50:49.684Z,10.00
2018-11-02T06:53:22.070Z,10.01
2018-11-02T06:55:53.182Z,10.06
2018-11-02T06:58:26.729Z,10.09
2018-11-02T07:00:58.068Z,10.09
2018-11-02T07:03:29.479Z,10.11
2018-11-02T07:06:01.155Z,10.11
2018-11-02T07:08:32.471Z,10.11
2018-11-02T07:11:04.508Z,10.10
2018-11-02T07:13:36.146Z,10.12
2018-11-02T07:16:07.549Z,10.18
2018-11-02T07:18:38.926Z,10.25
2018-11-02T07:21:10.646Z,10.34
2018-11-02T07:23:42.176Z,10.45
2018-11-02T07:26:14.052Z,10.53
2018-11-02T07:28:45.868Z,10.68
2018-11-02T07:31:17.825Z,10.80
2018-11-02T07:33:49.352Z,10.80
2018-11-02T07:36:20.257Z,11.04
2018-11-02T07:38:51.947Z,11.11
2018-11-02T07:41:24.161Z,11.18
2018-11-02T07:43:55.944Z,11.24
2018-11-02T07:46:27.652Z,11.31
2018-11-02T07:48:59.309Z,11.37
2018-11-02T07:51:30.820Z,11.42
2018-11-02T07:54:01.942Z,11.42
2018-11-02T07:56:33.112Z,11.46
2018-11-02T07:59:04.619Z,11.52
2018-11-02T08:01:36.249Z,11.60
2018-11-02T08:04:08.248Z,11.69
2018-11-02T08:06:39.806Z,11.75
2018-11-02T08:09:13.469Z,11.85
2018-11-02T08:11:45.282Z,12.00
2018-11-02T08:14:16.919Z,12.14
2018-11-02T08:16:49.172Z,12.31
2018-11-02T08:19:20.121Z,12.42
2018-11-02T08:21:51.777Z,12.02
2018-11-02T08:24:24.342Z,11.79
2018-11-02T08:26:55.447Z,12.78
2018-11-02T08:29:26.843Z,12.94
2018-11-02T08:31:58.050Z,13.08
2018-11-02T08:34:29.786Z,13.27
2018-11-02T08:37:01.286Z,13.45
2018-11-02T08:39:32.949Z,13.61
2018-11-02T08:42:04.982Z,13.37
2018-11-02T08:44:36.777Z,13.99
2018-11-02T08:47:08.715Z,14.19
2018-11-02T08:49:39.699Z,14.37
2018-11-02T08:52:11.859Z,14.59
2018-11-02T08:54:43.464Z,14.80
2018-11-02T08:57:14.486Z,14.95
2018-11-02T08:59:45.865Z,15.03
2018-11-02T09:02:18.337Z,15.02
2018-11-02T09:04:49.657Z,14.85
2018-11-02T09:07:21.479Z,14.53
2018-11-02T09:09:53.061Z,14.35
2018-11-02T09:12:25.291Z,14.22
2018-11-02T09:14:56.832Z,13.95
2018-11-02T09:17:28.627Z,13.75
2018-11-02T09:20:01.193Z,13.58
2018-11-02T09:22:32.942Z,12.99
2018-11-02T09:25:04.285Z,13.36
2018-11-02T09:27:36.142Z,13.35
2018-11-02T09:30:09.939Z,13.36
2018-11-02T09:32:41.055Z,13.41
2018-11-02T09:35:12.299Z,12.86
2018-11-02T09:37:44.195Z,13.57
2018-11-02T09:40:15.674Z,13.62
2018-11-02T09:42:47.426Z,13.71
2018-11-02T09:45:18.634Z,13.70
2018-11-02T09:47:49.885Z,13.60
2018-11-02T09:50:21.034Z,13.47
2018-11-02T09:52:52.282Z,13.37
2018-11-02T09:55:23.681Z,13.28
2018-11-02T09:57:56.236Z,13.27
2018-11-02T10:00:27.763Z,12.74
2018-11-02T10:02:59.693Z,13.38
2018-11-02T10:05:31.400Z,13.44
2018-11-02T10:08:04.284Z,13.44
2018-11-02T10:10:36.373Z,13.46
2018-11-02T10:13:08.232Z,13.57
2018-11-02T10:15:39.439Z,13.68
2018-11-02T10:18:11.106Z,13.71
2018-11-02T10:20:43.148Z,13.76
2018-11-02T10:23:14.430Z,13.74
2018-11-02T10:25:46.242Z,13.80
2018-11-02T10:28:18.458Z,13.85
2018-11-02T10:30:50.125Z,13.95
2018-11-02T10:33:21.442Z,14.04
2018-11-02T10:35:53.548Z,14.03
2018-11-02T10:38:25.534Z,14.06
2018-11-02T10:41:00.412Z,14.16
2018-11-02T10:43:35.249Z,14.25
2018-11-02T10:46:09.108Z,14.11
2018-11-02T10:48:40.751Z,14.44
2018-11-02T10:51:13.186Z,14.60
2018-11-02T10:53:44.546Z,14.68
2018-11-02T10:56:17.438Z,14.72
2018-11-02T10:58:50.697Z,14.73
2018-11-02T11:01:26.636Z,14.75
2018-11-02T11:03:58.015Z,14.64
2018-11-02T11:06:29.178Z,14.54
2018-11-02T11:09:00.702Z,14.58
2018-11-02T11:11:31.949Z,14.65
2018-11-02T11:14:04.093Z,14.80
2018-11-02T11:16:35.711Z,14.91
2018-11-02T11:19:07.613Z,15.20
2018-11-02T11:21:42.063Z,15.44
2018-11-02T11:24:14.937Z,15.68
2018-11-02T11:26:46.482Z,15.74
2018-11-02T11:29:19.632Z,15.60
2018-11-02T11:31:51.137Z,15.56
2018-11-02T11:35:24.542Z,15.42
2018-11-02T11:37:55.629Z,15.21
2018-11-02T11:40:26.981Z,15.13
2018-11-02T11:42:58.163Z,15.23
2018-11-02T11:45:30.132Z,15.24
2018-11-02T11:48:02.245Z,15.25
2018-11-02T11:50:33.922Z,15.08
2018-11-02T11:53:05.372Z,15.06
2018-11-02T11:55:37.298Z,14.92
2018-11-02T11:58:09.270Z,14.98
2018-11-02T12:00:43.136Z,15.06
2018-11-02T12:03:14.898Z,15.13
2018-11-02T12:05:46.226Z,15.19
2018-11-02T12:08:17.587Z,15.25
2018-11-02T12:10:49.114Z,15.28
2018-11-02T12:13:21.050Z,15.31
2018-11-02T12:15:52.520Z,15.43
2018-11-02T12:18:23.825Z,15.42
2018-11-02T12:20:54.903Z,15.40
2018-11-02T12:23:26.309Z,15.55
2018-11-02T12:25:58.430Z,15.72
2018-11-02T12:28:29.643Z,15.87
2018-11-02T12:31:00.938Z,15.83
2018-11-02T12:33:32.943Z,15.83
2018-11-02T12:36:03.921Z,15.83
2018-11-02T12:38:34.967Z,15.74
2018-11-02T12:41:06.119Z,15.79
2018-11-02T12:43:39.042Z,15.88
2018-11-02T12:46:10.068Z,15.92
2018-11-02T12:48:42.459Z,15.84
2018-11-02T12:51:14.550Z,15.79
2018-11-02T12:53:46.514Z,15.84
2018-11-02T12:56:18.514Z,15.86
2018-11-02T12:58:49.595Z,15.91
2018-11-02T13:01:20.689Z,15.89
2018-11-02T13:03:51.847Z,15.91
2018-11-02T13:06:23.708Z,15.97
2018-11-02T13:08:56.385Z,15.99
2018-11-02T13:11:27.825Z,16.10
2018-11-02T13:13:59.002Z,16.15
2018-11-02T13:16:30.078Z,16.04
2018-11-02T13:19:01.218Z,15.98
2018-11-02T13:21:32.680Z,15.88
2018-11-02T13:24:05.215Z,15.44
2018-11-02T13:26:37.015Z,16.07
2018-11-02T13:29:09.431Z,16.11
2018-11-02T13:31:41.465Z,16.11
2018-11-02T13:34:13.435Z,16.01
2018-11-02T13:36:45.109Z,15.99
2018-11-02T13:39:16.521Z,15.98
2018-11-02T13:41:48.996Z,15.96
2018-11-02T13:44:20.934Z,15.85
2018-11-02T13:46:52.332Z,15.75
2018-11-02T13:49:24.435Z,15.79
2018-11-02T13:51:55.829Z,15.78
2018-11-02T13:54:27.576Z,15.68
2018-11-02T13:56:59.135Z,15.58
2018-11-02T13:59:31.255Z,15.41
2018-11-02T14:02:05.839Z,15.44
2018-11-02T14:04:39.120Z,15.58
2018-11-02T14:07:10.404Z,15.62
2018-11-02T14:09:41.905Z,15.64
2018-11-02T14:12:13.565Z,15.51
2018-11-02T14:14:45.493Z,15.39
2018-11-02T14:17:18.280Z,15.30
2018-11-02T14:19:53.827Z,15.20
2018-11-02T14:22:25.060Z,15.16
2018-11-02T14:24:58.990Z,15.08
2018-11-02T14:27:30.266Z,15.00
2018-11-02T14:30:02.223Z,14.92
2018-11-02T14:32:33.433Z,14.86
2018-11-02T14:35:06.359Z,14.77
2018-11-02T14:37:39.036Z,14.71
2018-11-02T14:40:11.788Z,14.61
2018-11-02T14:42:43.786Z,14.43
2018-11-02T14:45:16.459Z,14.33
2018-11-02T14:47:48.113Z,14.38
2018-11-02T14:50:20.395Z,14.43
2018-11-02T14:52:52.485Z,14.46
2018-11-02T14:55:24.833Z,14.40
2018-11-02T14:57:57.185Z,14.41
2018-11-02T15:00:28.397Z,14.39
2018-11-02T15:03:00.548Z,14.34
2018-11-02T15:05:32.726Z,14.35
2018-11-02T15:08:04.434Z,14.28
2018-11-02T15:10:35.881Z,14.17
2018-11-02T15:13:07.555Z,14.11
2018-11-02T15:15:40.171Z,14.08
2018-11-02T15:18:13.072Z,14.04
2018-11-02T15:20:44.838Z,13.86
2018-11-02T15:23:18.075Z,13.84
2018-11-02T15:25:50.186Z,13.75
2018-11-02T15:28:21.866Z,13.70
2018-11-02T15:30:53.221Z,13.70
2018-11-02T15:33:25.609Z,13.67
2018-11-02T15:35:58.927Z,13.64
2018-11-02T15:38:30.681Z,13.62
2018-11-02T15:41:02.367Z,13.58
2018-11-02T15:43:34.485Z,13.52
2018-11-02T15:46:07.674Z,13.43
2018-11-02T15:48:41.689Z,13.35
2018-11-02T15:51:13.271Z,13.33
2018-11-02T15:53:45.038Z,13.30
2018-11-02T15:56:16.475Z,13.27
2018-11-02T15:58:48.002Z,13.20
2018-11-02T16:01:19.780Z,13.15
2018-11-02T16:03:55.701Z,13.09
2018-11-02T16:06:28.872Z,13.03
2018-11-02T16:09:02.986Z,12.96
2018-11-02T16:11:43.081Z,12.88
2018-11-02T16:14:15.785Z,12.77
2018-11-02T16:16:48.133Z,12.64
2018-11-02T16:19:21.408Z,12.53
2018-11-02T16:21:53.522Z,12.42
2018-11-02T16:24:24.716Z,12.30
2018-11-02T16:26:56.150Z,12.17
2018-11-02T16:29:27.180Z,11.45
2018-11-02T16:31:58.727Z,11.97
2018-11-02T16:34:30.130Z,11.87
2018-11-02T16:37:01.731Z,11.77
2018-11-02T16:39:33.486Z,11.68
2018-11-02T16:42:06.089Z,11.60
2018-11-02T16:44:37.750Z,11.51
2018-11-02T16:47:08.885Z,11.41
2018-11-02T16:49:40.606Z,11.34
2018-11-02T16:52:12.202Z,11.25
2018-11-02T16:54:43.715Z,11.18
2018-11-02T16:57:14.751Z,11.13
2018-11-02T16:59:46.605Z,11.05
2018-11-02T17:02:18.474Z,10.98
2018-11-02T17:04:49.710Z,10.90
2018-11-02T17:07:21.045Z,10.84
2018-11-02T17:09:52.840Z,10.79
2018-11-02T17:12:24.135Z,10.75
2018-11-02T17:14:56.180Z,10.69
2018-11-02T17:17:27.546Z,10.53
2018-11-02T17:19:59.197Z,10.60
2018-11-02T17:22:31.132Z,10.58
2018-11-02T17:25:02.227Z,10.57
2018-11-02T17:27:33.659Z,10.57
2018-11-02T17:30:05.141Z,10.57
2018-11-02T17:32:36.914Z,10.60
2018-11-02T17:35:08.449Z,10.63
2018-11-02T17:37:40.547Z,10.67
2018-11-02T17:40:14.090Z,10.70
2018-11-02T17:42:46.017Z,10.72
2018-11-02T17:45:17.488Z,10.74
2018-11-02T17:47:49.120Z,10.76
2018-11-02T17:50:20.406Z,10.76
2018-11-02T17:52:51.607Z,10.76
2018-11-02T17:55:23.977Z,10.77
2018-11-02T17:57:55.340Z,10.79
2018-11-02T18:00:26.850Z,10.79
2018-11-02T18:02:58.134Z,10.80
2018-11-02T18:05:29.119Z,10.80
2018-11-02T18:08:00.494Z,10.81
2018-11-02T18:10:31.541Z,10.82
2018-11-02T18:13:02.512Z,10.84
2018-11-02T18:15:34.433Z,10.84
2018-11-02T18:18:05.501Z,10.84
2018-11-02T18:20:36.779Z,10.86
2018-11-02T18:23:08.830Z,10.87
2018-11-02T18:25:40.137Z,10.89
2018-11-02T18:28:11.574Z,10.88
2018-11-02T18:30:42.896Z,10.88
2018-11-02T18:33:13.993Z,10.83
2018-11-02T18:35:46.705Z,10.81
2018-11-02T18:38:18.427Z,10.79
2018-11-02T18:40:49.897Z,10.77
2018-11-02T18:43:21.316Z,10.75
2018-11-02T18:45:52.397Z,10.74
2018-11-02T18:48:25.329Z,10.71
2018-11-02T18:50:56.851Z,10.67
2018-11-02T18:53:28.445Z,10.66
2018-11-02T18:55:59.788Z,10.67
2018-11-02T18:58:31.239Z,10.68
2018-11-02T19:01:03.455Z,10.67
2018-11-02T19:03:34.945Z,10.65
2018-11-02T19:06:06.328Z,10.60
2018-11-02T19:08:38.296Z,10.60
2018-11-02T19:11:10.944Z,10.56
2018-11-02T19:13:42.433Z,10.51
2018-11-02T19:16:13.802Z,10.45
2018-11-02T19:18:47.085Z,10.41
2018-11-02T19:21:19.539Z,10.37
2018-11-02T19:23:51.399Z,10.33
2018-11-02T19:26:23.163Z,9.86
2018-11-02T19:28:59.229Z,10.26
2018-11-02T19:31:32.323Z,10.27
2018-11-02T19:34:08.323Z,10.29
2018-11-02T19:36:44.903Z,10.31
2018-11-02T19:39:20.505Z,10.32
2018-11-02T19:41:56.081Z,10.33
2018-11-02T19:44:28.981Z,10.35
2018-11-02T19:47:05.512Z,10.39
2018-11-02T19:49:38.338Z,10.41
2018-11-02T19:52:11.458Z,10.39
2018-11-02T19:54:44.461Z,10.41
2018-11-02T19:57:16.100Z,10.43
2018-11-02T19:59:49.322Z,10.43
2018-11-02T20:02:21.862Z,10.47
2018-11-02T20:04:56.277Z,10.52
2018-11-02T20:07:28.700Z,10.55
2018-11-02T20:10:02.822Z,10.58
2018-11-02T20:12:34.969Z,10.61
2018-11-02T20:15:07.150Z,10.62
2018-11-02T20:17:39.727Z,10.65
2018-11-02T20:20:17.794Z,10.69
2018-11-02T20:22:48.833Z,10.72
2018-11-02T20:25:20.204Z,10.73
2018-11-02T20:27:53.520Z,10.75
2018-11-02T20:30:25.687Z,10.75
2018-11-02T20:32:59.177Z,10.76
2018-11-02T20:35:32.798Z,10.74
2018-11-02T20:38:05.438Z,10.32
2018-11-02T20:40:41.156Z,10.67
2018-11-02T20:43:13.147Z,10.58
2018-11-02T20:45:46.324Z,9.92
2018-11-02T20:48:18.242Z,10.45
2018-11-02T20:50:50.761Z,10.42
2018-11-02T20:53:24.044Z,10.44
2018-11-02T20:55:56.071Z,10.44
2018-11-02T20:58:33.398Z,10.46
2018-11-02T21:01:05.290Z,10.45
2018-11-02T21:03:36.741Z,10.46
2018-11-02T21:06:08.038Z,10.47
2018-11-02T21:08:39.680Z,10.46
2018-11-02T21:11:13.841Z,10.43
2018-11-02T21:13:45.421Z,10.42
2018-11-02T21:16:18.078Z,10.42
2018-11-02T21:18:53.245Z,10.42
2018-11-02T21:21:24.934Z,10.44
2018-11-02T21:23:56.803Z,9.90
2018-11-02T21:26:29.045Z,10.49
2018-11-02T21:29:00.319Z,10.52
2018-11-02T21:31:31.487Z,10.54
2018-11-02T21:34:03.540Z,10.54
2018-11-02T21:36:34.880Z,10.54
2018-11-02T21:39:09.426Z,10.53
2018-11-02T21:41:42.651Z,10.55
2018-11-02T21:44:14.387Z,10.56
2018-11-02T21:46:45.510Z,10.55
2018-11-02T21:49:16.872Z,10.56
2018-11-02T21:51:48.135Z,10.55
2018-11-02T21:54:19.830Z,10.54
2018-11-02T21:56:51.363Z,10.52
2018-11-02T21:59:24.240Z,10.54
2018-11-02T22:01:56.362Z,10.55
2018-11-02T22:04:28.337Z,10.58
2018-11-02T22:07:00.224Z,10.60
2018-11-02T22:09:32.467Z,10.62
2018-11-02T22:12:04.241Z,10.61
2018-11-02T22:14:36.258Z,10.58
2018-11-02T22:17:07.715Z,10.63
2018-11-02T22:19:38.972Z,10.67
2018-11-02T22:22:10.464Z,10.67
2018-11-02T22:24:41.508Z,10.68
2018-11-02T22:27:13.359Z,10.62
2018-11-02T22:29:45.428Z,10.60
2018-11-02T22:32:17.260Z,10.56
2018-11-02T22:34:48.730Z,10.56
2018-11-02T22:37:20.499Z,10.59
2018-11-02T22:39:51.599Z,10.62
2018-11-02T22:42:22.677Z,10.63
2018-11-02T22:44:53.749Z,10.66
2018-11-02T22:47:25.686Z,10.66
2018-11-02T22:49:57.736Z,10.25
2018-11-02T22:52:29.574Z,10.67
2018-11-02T22:55:01.241Z,10.69
2018-11-02T22:57:35.027Z,10.69
2018-11-02T23:00:14.887Z,10.71
2018-11-02T23:02:48.682Z,10.71
2018-11-02T23:05:23.946Z,10.73
2018-11-02T23:07:55.929Z,10.73
2018-11-02T23:10:27.348Z,10.73
2018-11-02T23:12:58.773Z,10.73
2018-11-02T23:15:30.577Z,10.72
2018-11-02T23:18:01.671Z,10.70
2018-11-02T23:20:33.438Z,10.68
2018-11-02T23:23:06.516Z,10.66
2018-11-02T23:25:38.514Z,10.62
2018-11-02T23:28:10.159Z,10.64
2018-11-02T23:30:42.707Z,10.59
2018-11-02T23:33:13.971Z,10.58
2018-11-02T23:35:45.085Z,10.59
2018-11-02T23:38:16.984Z,10.63
2018-11-02T23:40:48.648Z,10.64
2018-11-02T23:43:20.798Z,10.65
2018-11-02T23:45:54.083Z,10.61
2018-11-02T23:48:25.215Z,10.59
2018-11-02T23:50:56.346Z,10.56
2018-11-02T23:53:27.895Z,10.53
2018-11-02T23:55:59.072Z,10.52
2018-11-02T23:58:34.605Z,10.50
